Time;durP1;ratioP1;P1;durP2;ratioP2;P2;SDS_P1;SDS_P2;PMS_P1;PMS_P2;Temp;Humidity;BMP_temperature;BMP_pressure;BME280_temperature;BME280_humidity;BME280_pressure;Samples;Min_cycle;Max_cycle;Signal;HPM_P1;HPM_P2
2022/01/16 00:08:24;;;;;;;;;;;;;;;20.38;26.75;96236.09;10357867;28;1857;-54
2022/01/16 00:13:25;;;;;;;;;;;;;;;20.43;26.71;96275.63;10354098;28;1834;-56
2022/01/16 00:18:29;;;;;;;;;;;;;;;20.38;26.48;96251.91;10359839;28;1906;-51
2022/01/16 00:23:29;;;;;;;;;;;;;;;20.39;26.73;96248.22;10357328;28;1890;-57
2022/01/16 00:28:29;;;;;;;;;;;;;;;20.42;26.75;96215.31;10363106;28;1826;-55
2022/01/16 00:33:30;;;;;;;;;;;;;;;20.41;26.75;96219.78;10359110;28;1798;-57
2022/01/16 00:38:30;;;;;;;;;;;;;;;20.46;26.61;96245.34;10371489;28;1967;-56
2022/01/16 00:43:31;;;;;;;;;;;;;;;20.41;26.72;96243.50;10372995;28;1895;-56
2022/01/16 00:48:32;;;;;;;;;;;;;;;20.49;26.37;96239.53;10380566;28;1875;-53
2022/01/16 00:53:33;;;;;;;;;;;;;;;20.51;26.55;96229.53;10374340;28;1808;-56
2022/01/16 00:58:33;;;;;;;;;;;;;;;20.46;26.66;96230.34;10372323;28;1906;-57
2022/01/16 01:03:34;;;;;;;;;;;;;;;20.49;26.48;96227.19;10358771;28;1959;-57
2022/01/16 01:08:34;;;;;;;;;;;;;;;20.47;26.51;96271.41;10359901;28;2007;-57
2022/01/16 01:13:55;;;;;;;;;;;;;;;20.50;26.57;96267.47;10357375;28;1942;-56
2022/01/16 01:18:55;;;;;;;;;;;;;;;20.45;26.40;96199.78;10363028;28;1902;-57
2022/01/16 01:23:56;;;;;;;;;;;;;;;20.49;26.35;96168.44;10374636;28;1860;-57
2022/01/16 01:28:56;;;;;;;;;;;;;;;20.50;26.38;96165.56;10377739;28;1813;-54
2022/01/16 01:33:57;;;;;;;;;;;;;;;20.51;26.48;96211.91;10356132;28;1806;-56
2022/01/16 01:38:57;;;;;;;;;;;;;;;20.50;26.20;96235.88;10369619;28;1924;-56
2022/01/16 01:54:35;;;;;;;;;;;;;;;20.49;26.47;96213.22;10354507;28;1826;-57
2022/01/16 01:59:39;;;;;;;;;;;;;;;20.47;26.52;96234.56;10356603;28;1967;-55
2022/01/16 02:04:40;;;;;;;;;;;;;;;20.49;26.35;96242.97;10347276;28;1754;-57
2022/01/16 02:09:40;;;;;;;;;;;;;;;20.46;26.50;96259.31;10375518;28;1844;-56
2022/01/16 02:14:55;;;;;;;;;;;;;;;20.46;26.34;96266.41;10365251;28;1768;-56
2022/01/16 02:36:04;;;;;;;;;;;;;;;20.47;26.31;96234.56;10375712;28;2018;-58
2022/01/16 02:41:05;;;;;;;;;;;;;;;20.50;26.38;96220.88;10352940;28;1981;-56
2022/01/16 02:51:19;;;;;;;;;;;;;;;20.47;26.37;96202.94;10372313;28;1991;-56
2022/01/16 02:56:19;;;;;;;;;;;;;;;20.47;26.35;96196.88;10375261;28;2019;-57
2022/01/16 03:01:20;;;;;;;;;;;;;;;20.49;26.47;96190.31;10374419;28;1943;-57
2022/01/16 03:06:20;;;;;;;;;;;;;;;20.45;26.41;96183.97;10380944;28;1958;-55
2022/01/16 03:11:27;;;;;;;;;;;;;;;20.46;26.45;96174.25;10357826;28;1977;-55
2022/01/16 03:16:28;;;;;;;;;;;;;;;20.45;26.43;96167.38;10380131;28;1914;-57
2022/01/16 03:26:47;;;;;;;;;;;;;;;20.50;26.10;96170.03;10363390;28;1941;-56
2022/01/16 03:31:48;;;;;;;;;;;;;;;20.44;26.20;96158.72;10365138;28;1981;-58
2022/01/16 03:36:48;;;;;;;;;;;;;;;20.46;26.25;96156.63;10362127;28;1936;-55
2022/01/16 03:41:48;;;;;;;;;;;;;;;20.50;26.27;96157.66;10359648;28;2000;-54
2022/01/16 03:46:49;;;;;;;;;;;;;;;20.47;26.17;96150.28;10362168;28;2061;-54
2022/01/16 03:51:50;;;;;;;;;;;;;;;20.47;26.10;96152.13;10357916;28;2351;-57
2022/01/16 03:56:50;;;;;;;;;;;;;;;20.49;26.05;96153.44;10378655;28;2170;-58
2022/01/16 04:01:51;;;;;;;;;;;;;;;20.49;26.09;96152.63;10372958;28;2439;-55
2022/01/16 04:06:51;;;;;;;;;;;;;;;20.47;26.39;96168.72;10373112;28;2399;-56
2022/01/16 04:11:54;;;;;;;;;;;;;;;20.51;26.41;96175.03;10366357;28;1978;-54
2022/01/16 04:16:55;;;;;;;;;;;;;;;20.51;26.06;96174.25;10357357;28;1980;-52
2022/01/16 04:21:56;;;;;;;;;;;;;;;20.47;26.14;96171.34;10380142;28;1837;-52
2022/01/16 04:26:56;;;;;;;;;;;;;;;20.50;26.05;96175.31;10364566;28;3980;-55
2022/01/16 04:31:56;;;;;;;;;;;;;;;20.46;26.13;96172.41;10361682;28;1835;-55
2022/01/16 04:36:57;;;;;;;;;;;;;;;20.47;26.24;96168.72;10364264;28;1997;-57
2022/01/16 04:47:16;;;;;;;;;;;;;;;20.47;26.09;96173.97;10359660;28;1966;-56
2022/01/16 04:52:16;;;;;;;;;;;;;;;20.48;26.24;96182.69;10357644;28;1818;-55
2022/01/16 04:57:17;;;;;;;;;;;;;;;20.47;26.20;96181.88;10361462;28;2191;-55
2022/01/16 05:02:17;;;;;;;;;;;;;;;20.50;26.16;96175.31;10360392;28;1885;-55
2022/01/16 05:07:18;;;;;;;;;;;;;;;20.52;26.00;96189.78;10358153;28;1848;-58
2022/01/16 05:12:27;;;;;;;;;;;;;;;20.52;26.09;96178.47;10353839;28;1858;-55
2022/01/16 05:17:27;;;;;;;;;;;;;;;20.49;26.16;96190.31;10376950;28;1922;-56
2022/01/16 05:22:27;;;;;;;;;;;;;;;20.50;26.13;96186.63;10355834;28;1869;-56
2022/01/16 05:27:28;;;;;;;;;;;;;;;20.49;26.12;96190.31;10371009;28;1869;-53
2022/01/16 05:32:28;;;;;;;;;;;;;;;20.52;26.02;96189.00;10357585;28;1894;-54
2022/01/16 05:37:29;;;;;;;;;;;;;;;20.48;26.00;96188.75;10371259;28;2012;-56
2022/01/16 05:42:31;;;;;;;;;;;;;;;20.50;25.90;96191.91;10354373;28;1784;-56
2022/01/16 05:47:32;;;;;;;;;;;;;;;20.52;26.03;96199.53;10378052;28;1824;-55
2022/01/16 05:52:32;;;;;;;;;;;;;;;20.55;25.90;96199.00;10371894;28;1920;-54
2022/01/16 05:57:33;;;;;;;;;;;;;;;20.54;26.09;96214.03;10374718;28;1942;-54
2022/01/16 06:02:33;;;;;;;;;;;;;;;20.51;25.80;96209.28;10354305;28;1773;-57
2022/01/16 06:07:34;;;;;;;;;;;;;;;20.52;25.97;96220.59;10370236;28;1968;-57
2022/01/16 06:12:34;;;;;;;;;;;;;;;20.48;25.91;96225.59;10350952;28;1845;-55
2022/01/16 06:17:35;;;;;;;;;;;;;;;20.51;26.01;96238.25;10359936;28;1989;-55
2022/01/16 06:22:35;;;;;;;;;;;;;;;20.48;26.04;96230.88;10354756;28;1860;-57
2022/01/16 06:27:35;;;;;;;;;;;;;;;20.50;25.98;96241.94;10347146;28;1797;-53
2022/01/16 06:32:36;;;;;;;;;;;;;;;20.49;26.02;96245.63;10359606;28;1789;-56
2022/01/16 06:37:36;;;;;;;;;;;;;;;20.49;26.06;96240.34;10362642;28;1902;-56
2022/01/16 06:42:37;;;;;;;;;;;;;;;20.53;25.91;96230.06;10360179;28;1924;-57
2022/01/16 06:47:38;;;;;;;;;;;;;;;20.50;25.92;96238.50;10383079;28;1844;-56
2022/01/16 06:52:38;;;;;;;;;;;;;;;20.49;25.90;96253.50;10376234;28;1821;-55
2022/01/16 06:57:39;;;;;;;;;;;;;;;20.52;25.96;96253.00;10361054;28;1906;-54
2022/01/16 07:02:39;;;;;;;;;;;;;;;20.49;25.99;96256.16;10361586;28;1876;-54
2022/01/16 07:07:39;;;;;;;;;;;;;;;20.50;25.96;96264.84;10359400;28;2163;-55
2022/01/16 07:12:40;;;;;;;;;;;;;;;20.51;25.92;96264.56;10361353;28;1817;-56
2022/01/16 07:17:40;;;;;;;;;;;;;;;20.50;26.01;96270.91;10380533;28;1918;-57
2022/01/16 07:22:41;;;;;;;;;;;;;;;20.49;25.88;96258.78;10380022;28;1853;-54
2022/01/16 07:27:41;;;;;;;;;;;;;;;20.51;25.88;96261.94;10373608;28;1935;-56
2022/01/16 07:32:42;;;;;;;;;;;;;;;20.50;26.04;96273.53;10377687;28;1817;-57
2022/01/16 07:37:42;;;;;;;;;;;;;;;20.51;25.92;96274.31;10377590;28;1969;-56
2022/01/16 07:42:43;;;;;;;;;;;;;;;20.50;26.02;96283.28;10370215;28;2174;-57
2022/01/16 07:47:44;;;;;;;;;;;;;;;20.50;25.90;96288.53;10377468;28;1772;-57
2022/01/16 07:52:44;;;;;;;;;;;;;;;20.49;25.90;96300.91;10373760;28;1785;-55
2022/01/16 07:57:44;;;;;;;;;;;;;;;20.53;25.91;96309.06;10358267;28;2042;-52
2022/01/16 08:02:45;;;;;;;;;;;;;;;20.51;25.77;96317.25;10354505;28;1841;-56
2022/01/16 08:07:46;;;;;;;;;;;;;;;20.48;25.98;96320.41;10359837;28;1868;-55
2022/01/16 08:12:47;;;;;;;;;;;;;;;20.52;25.82;96323.31;10358658;28;1797;-56
2022/01/16 08:17:47;;;;;;;;;;;;;;;20.51;26.01;96309.34;10360395;28;1915;-56
2022/01/16 08:22:48;;;;;;;;;;;;;;;20.52;26.03;96307.50;10362644;28;1991;-54
2022/01/16 08:27:49;;;;;;;;;;;;;;;20.52;26.04;96307.50;10373469;28;1856;-57
2022/01/16 08:32:49;;;;;;;;;;;;;;;20.54;26.01;96308.84;10376443;28;1876;-55
2022/01/16 08:37:50;;;;;;;;;;;;;;;20.55;25.99;96313.03;10365095;28;1983;-54
2022/01/16 08:42:50;;;;;;;;;;;;;;;20.57;26.07;96302.25;10374880;28;1806;-51
2022/01/16 08:47:51;;;;;;;;;;;;;;;20.58;26.21;96303.84;10382036;28;1766;-54
2022/01/16 08:52:52;;;;;;;;;;;;;;;20.60;26.14;96301.75;10380476;28;1848;-56
2022/01/16 08:57:52;;;;;;;;;;;;;;;20.59;25.99;96290.41;10377378;28;2057;-54
2022/01/16 09:02:53;;;;;;;;;;;;;;;20.63;26.17;96302.00;10377125;28;1935;-55
2022/01/16 09:07:54;;;;;;;;;;;;;;;20.60;26.25;96313.06;10377718;28;1731;-52
2022/01/16 09:12:55;;;;;;;;;;;;;;;20.61;26.20;96313.88;10378195;28;1774;-56
2022/01/16 09:17:56;;;;;;;;;;;;;;;20.63;26.11;96309.91;10363950;28;2002;-56
2022/01/16 09:22:56;;;;;;;;;;;;;;;20.66;26.03;96309.41;10351504;28;1876;-55
2022/01/16 09:27:58;;;;;;;;;;;;;;;20.68;26.23;96315.19;10357439;28;2048;-57
2022/01/16 09:32:58;;;;;;;;;;;;;;;20.68;26.31;96323.09;10372841;28;1864;-57
2022/01/16 09:38:00;;;;;;;;;;;;;;;20.69;26.26;96321.25;10373706;28;1975;-57
2022/01/16 09:43:01;;;;;;;;;;;;;;;20.71;26.25;96317.28;10374738;28;1758;-55
2022/01/16 09:48:02;;;;;;;;;;;;;;;20.69;26.45;96324.66;10375260;28;1837;-58
2022/01/16 09:53:02;;;;;;;;;;;;;;;20.72;26.30;96324.16;10376959;28;1888;-57
2022/01/16 09:58:03;;;;;;;;;;;;;;;20.72;26.32;96310.97;10377552;28;1918;-57
2022/01/16 10:03:05;;;;;;;;;;;;;;;20.75;26.22;96312.31;10361824;28;1643;-58
2022/01/16 10:08:06;;;;;;;;;;;;;;;20.74;26.14;96318.63;10362868;28;1701;-58
2022/01/16 10:13:21;;;;;;;;;;;;;;;20.74;26.29;96313.34;10375687;28;1745;-58
2022/01/16 10:18:51;;;;;;;;;;;;;;;20.76;26.36;96317.31;10368084;28;1942;-55
2022/01/16 10:23:51;;;;;;;;;;;;;;;20.79;26.10;96318.66;10373575;28;1830;-57
2022/01/16 10:28:52;;;;;;;;;;;;;;;20.80;26.21;96307.84;10377999;28;1797;-58
2022/01/16 10:33:53;;;;;;;;;;;;;;;20.81;26.14;96301.50;10375279;28;1731;-57
2022/01/16 10:39:12;;;;;;;;;;;;;;;20.83;26.08;96303.91;10380143;28;1974;-55
2022/01/16 10:44:28;;;;;;;;;;;;;;;20.82;25.93;96303.09;10377228;28;1902;-56
2022/01/16 10:49:29;;;;;;;;;;;;;;;20.81;26.19;96306.78;10366506;28;1922;-56
2022/01/16 10:54:31;;;;;;;;;;;;;;;20.83;26.21;96314.44;10364044;28;1920;-56
2022/01/16 10:59:32;;;;;;;;;;;;;;;20.86;26.25;96311.25;10380142;28;1961;-58
2022/01/16 11:04:32;;;;;;;;;;;;;;;20.84;26.20;96313.38;10365920;28;1859;-56
2022/01/16 11:09:33;;;;;;;;;;;;;;;20.86;26.00;96314.69;10373792;28;1929;-57
2022/01/16 11:14:34;;;;;;;;;;;;;;;20.88;26.23;96312.59;10366280;28;1813;-57
2022/01/16 11:19:35;;;;;;;;;;;;;;;20.90;26.12;96323.66;10380492;28;1902;-56
2022/01/16 11:24:59;;;;;;;;;;;;;;;20.90;26.24;96323.66;10363378;28;1789;-58
2022/01/16 11:30:00;;;;;;;;;;;;;;;20.90;26.11;96323.66;10367253;28;1845;-56
2022/01/16 11:35:00;;;;;;;;;;;;;;;20.90;26.24;96328.13;10372855;28;1856;-57
2022/01/16 11:40:20;;;;;;;;;;;;;;;20.90;26.12;96321.03;10339292;28;2148;-57
2022/01/16 11:45:21;;;;;;;;;;;;;;;20.94;26.22;96330.00;10380437;28;1867;-55
2022/01/16 11:50:21;;;;;;;;;;;;;;;20.95;26.18;96305.22;10380223;28;1784;-56
2022/01/16 11:55:22;;;;;;;;;;;;;;;20.95;26.43;96320.25;10357863;28;1917;-56
2022/01/16 12:00:22;;;;;;;;;;;;;;;20.97;26.38;96313.66;10360927;28;1983;-54
2022/01/16 12:05:24;;;;;;;;;;;;;;;21.00;26.23;96318.41;10378530;28;1875;-53
2022/01/16 12:10:38;;;;;;;;;;;;;;;21.01;26.15;96337.66;10361394;28;1969;-57
2022/01/16 12:15:39;;;;;;;;;;;;;;;21.05;26.17;96333.47;10357514;28;1893;-53
2022/01/16 12:20:39;;;;;;;;;;;;;;;21.05;26.32;96347.44;10364772;28;1973;-56
2022/01/16 12:25:40;;;;;;;;;;;;;;;21.10;26.17;96343.22;10388160;23;2642;-46
2022/01/16 12:30:41;;;;;;;;;;;;;;;21.13;26.01;96337.41;10402948;28;1867;-44
2022/01/16 12:35:42;;;;;;;;;;;;;;;21.11;26.34;96342.16;10405265;28;1893;-43
2022/01/16 12:40:44;;;;;;;;;;;;;;;21.11;26.32;96334.25;10447363;28;1914;-49
2022/01/16 12:45:44;;;;;;;;;;;;;;;21.15;26.43;96341.38;10430664;28;1900;-45
2022/01/16 12:50:45;;;;;;;;;;;;;;;21.12;26.50;96351.66;10438756;28;1824;-43
2022/01/16 12:55:46;;;;;;;;;;;;;;;21.15;26.22;96340.56;10438301;28;1985;-44
2022/01/16 13:01:03;;;;;;;;;;;;;;;21.11;26.34;96350.88;10441143;28;1767;-40
2022/01/16 13:06:23;;;;;;;;;;;;;;;21.13;26.19;96351.38;10442708;28;1867;-43
2022/01/16 13:11:24;;;;;;;;;;;;;;;21.17;26.17;96349.81;10435977;28;1990;-44
2022/01/16 13:16:27;;;;;;;;;;;;;;;21.19;26.36;96339.00;10441432;28;1909;-46
2022/01/16 13:21:35;;;;;;;;;;;;;;;21.24;26.17;96345.09;10438765;28;1878;-46
2022/01/16 13:26:36;;;;;;;;;;;;;;;21.25;26.19;96353.75;10438854;28;2079;-45
2022/01/16 13:31:36;;;;;;;;;;;;;;;21.32;26.28;96359.56;10441180;28;1820;-43
2022/01/16 13:36:37;;;;;;;;;;;;;;;21.30;26.48;96354.56;10404782;28;1910;-44
2022/01/16 13:41:43;;;;;;;;;;;;;;;21.37;26.49;96360.38;10435439;28;1891;-49
2022/01/16 13:46:44;;;;;;;;;;;;;;;21.62;26.30;96354.28;10440585;28;1845;-45
2022/01/16 13:51:53;;;;;;;;;;;;;;;21.55;26.58;96369.59;10441765;28;1804;-46
2022/01/16 13:56:54;;;;;;;;;;;;;;;21.47;26.48;96365.66;10460220;28;1967;-43
2022/01/16 14:01:55;;;;;;;;;;;;;;;21.47;26.55;96376.22;10438374;28;1819;-47
2022/01/16 14:06:58;;;;;;;;;;;;;;;21.49;26.33;96379.38;10436688;28;1783;-42
2022/01/16 14:11:59;;;;;;;;;;;;;;;21.47;26.60;96376.22;10433959;28;1886;-42
2022/01/16 14:22:07;;;;;;;;;;;;;;;21.35;25.71;96386.22;10429946;28;1862;-41
2022/01/16 14:27:08;;;;;;;;;;;;;;;21.36;26.94;96392.28;10447876;28;1930;-50
2022/01/16 14:32:10;;;;;;;;;;;;;;;21.37;27.01;96396.50;10435226;28;1880;-50
2022/01/16 14:37:11;;;;;;;;;;;;;;;21.41;27.12;96397.56;10436867;28;1964;-52
2022/01/16 14:42:15;;;;;;;;;;;;;;;21.42;27.39;96402.56;10435766;28;2005;-53
2022/01/16 14:47:16;;;;;;;;;;;;;;;21.41;27.54;96413.41;10434987;28;2328;-55
2022/01/16 14:52:16;;;;;;;;;;;;;;;21.40;27.88;96415.22;10433948;28;1867;-40
2022/01/16 14:57:20;;;;;;;;;;;;;;;21.36;27.71;96434.47;10437864;28;1922;-43
2022/01/16 15:02:20;;;;;;;;;;;;;;;21.29;27.80;96444.50;10441054;28;1889;-42
2022/01/16 15:07:21;;;;;;;;;;;;;;;21.28;28.07;96482.47;10439797;28;2093;-41
2022/01/16 15:12:22;;;;;;;;;;;;;;;21.24;28.13;96470.84;10446028;28;1794;-44
2022/01/16 15:17:28;;;;;;;;;;;;;;;21.28;28.74;96479.81;10440741;28;1979;-44
2022/01/16 15:22:29;;;;;;;;;;;;;;;21.27;29.39;96494.84;10439300;28;1864;-46
2022/01/16 15:27:30;;;;;;;;;;;;;;;21.29;29.31;96505.91;10438156;28;1848;-49
2022/01/16 15:32:31;;;;;;;;;;;;;;;21.27;29.54;96517.81;10446316;28;1853;-46
2022/01/16 15:37:32;;;;;;;;;;;;;;;21.28;29.73;96529.91;10444303;28;1919;-47
2022/01/16 15:42:32;;;;;;;;;;;;;;;21.24;29.75;96534.94;10442470;28;1846;-46
2022/01/16 15:47:33;;;;;;;;;;;;;;;21.22;29.91;96570.50;10439978;28;1923;-43
2022/01/16 15:52:35;;;;;;;;;;;;;;;21.20;30.14;96581.31;10438173;28;1824;-44
2022/01/16 15:57:36;;;;;;;;;;;;;;;21.21;30.19;96603.19;10442800;28;1926;-43
2022/01/16 16:02:36;;;;;;;;;;;;;;;21.22;30.26;96600.31;10444744;28;1869;-41
2022/01/16 16:07:37;;;;;;;;;;;;;;;21.23;30.01;96595.81;10444692;28;1910;-45
2022/01/16 16:12:38;;;;;;;;;;;;;;;21.22;30.20;96595.03;10442448;28;2020;-44
2022/01/16 16:17:38;;;;;;;;;;;;;;;21.23;30.05;96611.63;10445464;28;1918;-43
2022/01/16 16:22:39;;;;;;;;;;;;;;;21.26;30.10;96624.31;10447457;28;1811;-47
2022/01/16 16:27:40;;;;;;;;;;;;;;;21.24;29.97;96631.69;10442203;28;1823;-43
2022/01/16 16:32:40;;;;;;;;;;;;;;;21.21;29.85;96635.63;10442550;28;1817;-43
2022/01/16 16:37:41;;;;;;;;;;;;;;;21.21;29.90;96645.38;10446358;28;1971;-40
2022/01/16 16:42:43;;;;;;;;;;;;;;;21.20;29.76;96664.91;10442796;28;1976;-46
2022/01/16 16:47:44;;;;;;;;;;;;;;;21.19;29.69;96673.84;10440518;28;1771;-46
2022/01/16 16:52:46;;;;;;;;;;;;;;;21.20;29.57;96675.44;10443230;28;1813;-42
2022/01/16 16:57:47;;;;;;;;;;;;;;;21.17;29.53;96686.47;10445389;28;1988;-46
2022/01/16 17:02:47;;;;;;;;;;;;;;;21.19;29.46;96684.38;10438712;28;1939;-42
2022/01/16 17:07:48;;;;;;;;;;;;;;;21.19;29.35;96684.38;10442850;28;1865;-45
2022/01/16 17:12:48;;;;;;;;;;;;;;;21.19;29.29;96687.81;10437439;28;1862;-43
2022/01/16 17:17:51;;;;;;;;;;;;;;;21.24;29.24;96687.88;10443103;28;2019;-45
2022/01/16 17:22:52;;;;;;;;;;;;;;;21.20;29.08;96692.06;10447505;28;1933;-41
2022/01/16 17:27:52;;;;;;;;;;;;;;;21.20;29.06;96704.44;10447394;28;1878;-44
2022/01/16 17:32:53;;;;;;;;;;;;;;;21.18;29.00;96706.53;10441917;28;1856;-47
2022/01/16 17:37:54;;;;;;;;;;;;;;;21.17;29.00;96713.66;10448276;28;1914;-46
2022/01/16 17:42:54;;;;;;;;;;;;;;;21.15;28.90;96709.66;10439293;28;1792;-44
2022/01/16 17:47:55;;;;;;;;;;;;;;;21.14;28.70;96713.38;10431794;28;1826;-47
2022/01/16 17:52:55;;;;;;;;;;;;;;;21.19;28.76;96722.09;10439722;28;1740;-41
2022/01/16 17:57:56;;;;;;;;;;;;;;;21.22;28.80;96726.06;10415664;28;1922;-41
2022/01/16 18:02:57;;;;;;;;;;;;;;;21.28;29.10;96732.97;10454877;28;1626;-43
2022/01/16 18:07:58;;;;;;;;;;;;;;;21.29;28.71;96742.50;10435088;28;1626;-43
2022/01/16 18:12:58;;;;;;;;;;;;;;;21.28;29.19;96740.88;10433353;28;1666;-46
2022/01/16 18:18:00;;;;;;;;;;;;;;;21.30;29.19;96739.59;10439060;28;1989;-44
2022/01/16 18:23:00;;;;;;;;;;;;;;;21.32;29.03;96752.50;10441996;28;1522;-45
2022/01/16 18:28:01;;;;;;;;;;;;;;;21.31;28.84;96749.06;10448264;28;1415;-49
2022/01/16 18:33:02;;;;;;;;;;;;;;;21.34;28.90;96755.69;10442806;28;1459;-41
2022/01/16 18:38:02;;;;;;;;;;;;;;;21.37;28.59;96745.41;10447700;28;1909;-44
2022/01/16 18:43:04;;;;;;;;;;;;;;;21.37;28.52;96755.19;10436887;28;1582;-45
2022/01/16 18:48:17;;;;;;;;;;;;;;;21.35;28.69;96773.13;10445018;28;1810;-43
2022/01/16 18:53:18;;;;;;;;;;;;;;;21.40;28.39;96773.94;10441644;28;1536;-44
2022/01/16 18:58:19;;;;;;;;;;;;;;;21.38;28.31;96781.31;10433653;28;1914;-44
2022/01/16 19:03:20;;;;;;;;;;;;;;;21.38;28.47;96777.88;10441086;28;1844;-41
2022/01/16 19:08:21;;;;;;;;;;;;;;;21.35;28.33;96767.84;10436737;28;1800;-40
2022/01/16 19:13:21;;;;;;;;;;;;;;;21.37;28.23;96750.69;10432828;28;1905;-45
2022/01/16 19:18:22;;;;;;;;;;;;;;;21.40;28.02;96742.28;10436430;28;1895;-43
2022/01/16 19:23:23;;;;;;;;;;;;;;;21.41;28.39;96740.44;10439358;28;1825;-40
2022/01/16 19:28:23;;;;;;;;;;;;;;;21.41;28.21;96740.44;10412028;28;1931;-39
2022/01/16 19:33:24;;;;;;;;;;;;;;;21.37;28.30;96745.41;10410930;28;1828;-38
2022/01/16 19:38:25;;;;;;;;;;;;;;;21.41;28.27;96740.44;10444898;28;2236;-40
2022/01/16 19:43:26;;;;;;;;;;;;;;;21.39;28.15;96748.59;10443530;28;1847;-41
2022/01/16 19:48:28;;;;;;;;;;;;;;;21.35;28.26;96750.16;10442175;28;1766;-46
2022/01/16 19:53:28;;;;;;;;;;;;;;;21.37;28.13;96745.41;10441089;28;1851;-45
2022/01/16 19:58:29;;;;;;;;;;;;;;;21.44;28.26;96755.75;10436038;28;1914;-41
2022/01/16 20:03:30;;;;;;;;;;;;;;;21.44;28.20;96761.81;10441137;28;1911;-41
2022/01/16 20:08:30;;;;;;;;;;;;;;;21.47;28.15;96763.16;10442172;28;1964;-42
2022/01/16 20:13:32;;;;;;;;;;;;;;;21.46;28.37;96769.47;10440294;28;1774;-40
2022/01/16 20:18:32;;;;;;;;;;;;;;;21.46;28.37;96766.84;10428670;28;1991;-41
2022/01/16 20:23:33;;;;;;;;;;;;;;;21.47;28.15;96776.34;10463260;28;1833;-42
2022/01/16 20:28:34;;;;;;;;;;;;;;;21.46;28.37;96782.66;10440558;28;1793;-39
2022/01/16 20:33:35;;;;;;;;;;;;;;;21.42;28.36;96790.31;10439947;28;1868;-41
2022/01/16 20:38:35;;;;;;;;;;;;;;;21.38;28.24;96783.94;10437220;28;1981;-43
2022/01/16 20:43:36;;;;;;;;;;;;;;;21.41;28.07;96788.69;10425948;28;1867;-43
2022/01/16 20:48:40;;;;;;;;;;;;;;;21.38;28.00;96794.50;10439462;28;1910;-46
2022/01/16 20:53:40;;;;;;;;;;;;;;;21.41;27.69;96811.66;10436154;28;1810;-46
2022/01/16 20:58:41;;;;;;;;;;;;;;;21.34;27.85;96819.00;10432299;28;1923;-43
2022/01/16 21:03:42;;;;;;;;;;;;;;;21.37;27.71;96818.50;10440299;28;1935;-39
2022/01/16 21:08:43;;;;;;;;;;;;;;;21.33;27.69;96812.91;10432652;28;1795;-41
2022/01/16 21:13:46;;;;;;;;;;;;;;;21.32;27.72;96818.44;10434790;28;1794;-42
2022/01/16 21:18:47;;;;;;;;;;;;;;;21.30;27.80;96815.25;10432741;28;2213;-47
2022/01/16 21:23:47;;;;;;;;;;;;;;;21.31;27.63;96782.59;10437235;28;1888;-43
2022/01/16 21:28:48;;;;;;;;;;;;;;;21.30;27.54;96797.59;10436983;28;1774;-49
2022/01/16 21:33:49;;;;;;;;;;;;;;;21.22;27.71;96802.53;10437269;28;1796;-43
2022/01/16 21:38:49;;;;;;;;;;;;;;;21.21;27.63;96808.84;10436212;28;1917;-44
2022/01/16 21:43:50;;;;;;;;;;;;;;;21.19;27.47;96800.41;10440777;28;1885;-42
2022/01/16 21:48:51;;;;;;;;;;;;;;;21.20;27.23;96808.09;10444380;28;1784;-43
2022/01/16 21:53:51;;;;;;;;;;;;;;;21.15;27.35;96804.59;10440733;28;1927;-45
2022/01/16 21:58:52;;;;;;;;;;;;;;;21.14;27.40;96803.00;10440758;28;1981;-44
2022/01/16 22:03:52;;;;;;;;;;;;;;;21.14;27.37;96818.84;10446421;28;1837;-46
2022/01/16 22:08:53;;;;;;;;;;;;;;;21.16;27.23;96816.75;10446254;28;1715;-43
2022/01/16 22:13:54;;;;;;;;;;;;;;;21.16;27.22;96829.91;10445989;28;1819;-44
2022/01/16 22:18:55;;;;;;;;;;;;;;;21.13;27.08;96825.94;10446444;28;1950;-46
2022/01/16 22:23:55;;;;;;;;;;;;;;;21.19;26.94;96829.41;10445250;28;1828;-43
2022/01/16 22:29:01;;;;;;;;;;;;;;;21.15;26.94;96826.47;10442422;28;1881;-43
2022/01/16 22:34:02;;;;;;;;;;;;;;;21.17;27.05;96826.22;10445745;28;1772;-41
2022/01/16 22:39:03;;;;;;;;;;;;;;;21.14;26.75;96832.00;10443413;28;1914;-42
2022/01/16 22:44:04;;;;;;;;;;;;;;;21.14;27.04;96839.94;10445010;28;1798;-41
2022/01/16 22:49:04;;;;;;;;;;;;;;;21.11;27.00;96838.56;10445093;28;1808;-44
2022/01/16 22:54:05;;;;;;;;;;;;;;;21.12;26.77;96837.56;10444945;28;1804;-44
2022/01/16 22:59:06;;;;;;;;;;;;;;;21.16;26.65;96837.84;10440766;28;2358;-43
2022/01/16 23:04:06;;;;;;;;;;;;;;;21.06;26.81;96835.91;10446974;28;1929;-48
2022/01/16 23:09:07;;;;;;;;;;;;;;;21.06;26.90;96825.38;10443014;28;1905;-46
2022/01/16 23:14:10;;;;;;;;;;;;;;;21.08;26.87;96825.13;10448960;28;1738;-44
2022/01/16 23:19:12;;;;;;;;;;;;;;;21.08;26.71;96827.75;10445063;28;1910;-49
2022/01/16 23:24:12;;;;;;;;;;;;;;;21.06;26.90;96839.31;10442420;28;1796;-47
2022/01/16 23:29:13;;;;;;;;;;;;;;;21.10;26.57;96823.81;10440319;28;1886;-46
2022/01/16 23:34:13;;;;;;;;;;;;;;;21.12;26.70;96837.56;10441345;28;1831;-48
2022/01/16 23:39:14;;;;;;;;;;;;;;;21.13;26.49;96833.03;10439034;28;1922;-44
2022/01/16 23:44:16;;;;;;;;;;;;;;;21.08;26.71;96835.66;10437585;28;2166;-50
2022/01/16 23:49:16;;;;;;;;;;;;;;;21.04;26.74;96836.13;10441623;28;1812;-49
2022/01/16 23:54:17;;;;;;;;;;;;;;;21.05;26.56;96843.03;10442195;28;1816;-47
2022/01/16 23:59:18;;;;;;;;;;;;;;;21.04;26.49;96841.41;10440934;28;1977;-44
